Terminal Aerodrome Forecast
Issued by NWS Paducah, KY

Home | Current Version | Previous Version | Text Only | Print | Product List | Glossary On
Versions: 1 2 3 4 5 6 7 8 9 10 11 12 13 14 15 16 17 18
134
FTUS43 KPAH 261132
TAFEVV
TAF
KEVV 261132Z 2612/2712 19003KT P6SM FEW250
     FM261500 17008KT P6SM SCT180
     FM261800 19013G20KT P6SM FEW070 SCT150
     FM262100 21013G21KT P6SM SCT035 BKN060
     FM270100 21007KT P6SM BKN025
     FM270800 24004KT P6SM BKN015=

USA.gov is the U.S. government's official web portal to all federal, state and local government web resources and services.